Decoded Metar for VABB (BOMBAY in INDIA) (IATA:BOM) | Meteo·Mobile Aviation Weather
aviador You're here:

VABB Decoded Metar

BOMBAY in INDIA
Report Time2019-03-21 15:00:00
UTC Time2019-03-21 15:32:07
Flight Rules ifr IFR
Wind310° at 05 kt
W.Decomp.*RWY 32: 4.9 kt HW 0.8 kt LCW
RWY 27: 3.8 kt HW 3.3 kt RCW
W.Rank310° ranks 9
Current wind is below 310° avg. (6.5)
Visibility4000 m
Phenomena:Haze
Clouds:N/A
Expected CloudBase > 2,400 ft AGL from Temp-Dew spread
CeilingNone
Temp26°C (ISA +11)
Dew Point20°C (70% RH)
QNH1013 hPa
Density Alt1,611 ft
Elevation26 ft
Report Wrong Elevation
Raw Report
VABB 211500Z 31005KT 4000 HZ NSC 26/20 Q1013 NOSIG=

Extra information for VABB:More info

Metar Taf Metar & Taf Last 4 Metars F.Rules Stats Wind Profile Meteogram Temp Stats Airport Information Weather charts Add Link Nearby VenuesMetar ALERT Operation Metar Decoded Social comments